Time;durP1;ratioP1;P1;durP2;ratioP2;P2;SDS_P1;SDS_P2;PMS_P1;PMS_P2;Temp;Humidity;BMP_temperature;BMP_pressure;BME280_temperature;BME280_humidity;BME280_pressure;Samples;Min_cycle;Max_cycle;Signal;HPM_P1;HPM_P2
2022/09/19 00:01:59;;;;;;;7.25;1.38;;;7.80;99.90;;;;;;5040603;28;20370;-73
2022/09/19 00:04:28;;;;;;;7.70;1.50;;;7.90;99.90;;;;;;5039074;28;20504;-74
2022/09/19 00:06:55;;;;;;;10.05;1.48;;;7.90;99.90;;;;;;5053184;28;20028;-74
2022/09/19 00:09:23;;;;;;;8.25;1.35;;;7.80;99.90;;;;;;5053134;28;20017;-73
2022/09/19 00:11:51;;;;;;;10.90;1.40;;;7.80;99.90;;;;;;5053350;28;20051;-73
2022/09/19 00:14:23;;;;;;;5.47;1.23;;;7.80;99.90;;;;;;5052413;28;20055;-73
2022/09/19 00:16:53;;;;;;;12.52;1.67;;;7.80;99.90;;;;;;5053444;28;20071;-73
2022/09/19 00:19:19;;;;;;;10.10;1.57;;;7.80;99.90;;;;;;5053079;28;20520;-73
2022/09/19 00:21:47;;;;;;;9.93;1.85;;;7.80;99.90;;;;;;5052573;28;20043;-73
2022/09/19 00:27:03;;;;;;;10.30;1.73;;;7.80;99.90;;;;;;5053048;28;20040;-73
2022/09/19 00:29:31;;;;;;;8.00;1.40;;;7.70;99.90;;;;;;5052349;28;20040;-73
2022/09/19 00:31:56;;;;;;;9.07;1.30;;;7.80;99.90;;;;;;5053155;28;20032;-73
2022/09/19 00:34:23;;;;;;;10.20;1.42;;;7.90;99.90;;;;;;5052873;28;20031;-73
2022/09/19 00:36:48;;;;;;;11.68;1.58;;;7.90;99.90;;;;;;5052168;28;20120;-73
2022/09/19 00:39:17;;;;;;;12.90;1.58;;;7.90;99.90;;;;;;5052511;28;20116;-73
2022/09/19 00:41:43;;;;;;;14.02;2.22;;;7.80;99.90;;;;;;5052709;28;20385;-73
2022/09/19 00:44:21;;;;;;;4.03;1.38;;;7.80;99.90;;;;;;5051857;28;20448;-73
2022/09/19 00:46:49;;;;;;;9.75;1.88;;;7.80;99.90;;;;;;5052692;28;20017;-72
2022/09/19 00:49:17;;;;;;;7.63;1.10;;;7.80;99.90;;;;;;5051778;28;20033;-73
2022/09/19 00:51:47;;;;;;;11.70;1.65;;;7.70;99.90;;;;;;5052794;28;20076;-73
2022/09/19 00:54:17;;;;;;;7.85;1.83;;;7.80;99.90;;;;;;5052130;28;20074;-72
2022/09/19 00:56:47;;;;;;;8.20;1.33;;;7.80;99.90;;;;;;5051958;28;20473;-73
2022/09/19 00:59:14;;;;;;;13.05;2.63;;;7.70;99.90;;;;;;5052223;28;20013;-72
2022/09/19 01:01:41;;;;;;;10.95;1.73;;;7.70;99.90;;;;;;5038414;28;20044;-73
2022/09/19 01:04:23;;;;;;;3.35;1.20;;;7.70;99.90;;;;;;5051536;28;20025;-73
2022/09/19 01:07:13;;;;;;;14.38;1.58;;;7.70;99.90;;;;;;5052022;28;20028;-73
2022/09/19 01:10:03;;;;;;;14.73;2.20;;;7.80;99.90;;;;;;5052326;28;20405;-73
2022/09/19 01:12:54;;;;;;;9.90;1.70;;;7.80;99.90;;;;;;5050724;28;20082;-74
2022/09/19 01:15:26;;;;;;;16.17;2.13;;;7.80;99.90;;;;;;5051904;28;20493;-73
2022/09/19 01:17:59;;;;;;;11.15;1.40;;;7.80;99.90;;;;;;5050126;28;20040;-73
2022/09/19 01:21:37;;;;;;;15.77;1.42;;;7.80;99.90;;;;;;5051703;28;20079;-74
2022/09/19 01:24:17;;;;;;;10.82;2.00;;;7.80;99.90;;;;;;5051857;28;20052;-74
2022/09/19 01:27:05;;;;;;;15.82;2.10;;;7.90;99.90;;;;;;5052213;28;20041;-74
2022/09/19 01:29:42;;;;;;;21.95;2.50;;;7.90;99.90;;;;;;5052006;28;20036;-74
2022/09/19 01:32:17;;;;;;;12.48;1.92;;;7.90;99.90;;;;;;5051022;28;20063;-74
2022/09/19 01:34:57;;;;;;;13.75;1.77;;;7.90;99.90;;;;;;5052175;28;20029;-74
2022/09/19 01:37:27;;;;;;;18.63;2.22;;;8.00;99.90;;;;;;5051569;28;20384;-74
2022/09/19 01:39:56;;;;;;;13.90;2.67;;;7.90;99.90;;;;;;5051683;28;20033;-74
2022/09/19 01:42:22;;;;;;;11.32;1.58;;;7.90;99.90;;;;;;5050026;28;20421;-74
2022/09/19 01:44:48;;;;;;;10.35;2.30;;;8.00;99.90;;;;;;5052046;28;20027;-74
2022/09/19 01:47:50;;;;;;;11.68;1.58;;;8.00;99.90;;;;;;5040698;28;20036;-74
2022/09/19 01:50:45;;;;;;;12.75;2.10;;;8.00;99.90;;;;;;5031781;28;20029;-74
2022/09/19 01:53:13;;;;;;;12.38;1.95;;;8.00;99.90;;;;;;5040880;28;20029;-75
2022/09/19 01:55:56;;;;;;;24.60;2.53;;;8.10;99.90;;;;;;5051738;28;20025;-74
2022/09/19 01:58:40;;;;;;;16.10;1.90;;;8.10;99.90;;;;;;5040953;28;20048;-74
2022/09/19 02:01:25;;;;;;;11.60;1.42;;;8.00;99.90;;;;;;5050147;28;20020;-74
2022/09/19 02:04:11;;;;;;;6.75;1.40;;;8.00;99.90;;;;;;5052419;28;20370;-74
2022/09/19 02:06:48;;;;;;;19.42;1.98;;;7.90;99.90;;;;;;5051202;28;20477;-74
2022/09/19 02:09:21;;;;;;;13.27;2.15;;;8.00;99.90;;;;;;5051141;28;20084;-73
2022/09/19 02:11:46;;;;;;;12.85;1.85;;;7.90;99.90;;;;;;5051776;28;20055;-73
2022/09/19 02:14:16;;;;;;;15.95;2.40;;;7.90;99.90;;;;;;5050337;28;20037;-74
2022/09/19 02:16:51;;;;;;;13.02;1.77;;;7.90;99.90;;;;;;5038689;28;20029;-73
2022/09/19 02:19:23;;;;;;;7.65;1.33;;;8.00;99.90;;;;;;5051132;28;20059;-73
2022/09/19 02:21:54;;;;;;;9.90;1.98;;;7.90;99.90;;;;;;5051167;28;20024;-73
2022/09/19 02:24:22;;;;;;;;;;;8.00;99.90;;;;;;5053010;28;20112;-73
2022/09/19 02:26:51;;;;;;;11.55;1.80;;;8.00;99.90;;;;;;5055381;28;19917;-72
2022/09/19 02:29:20;;;;;;;14.10;1.63;;;8.00;99.90;;;;;;5054924;28;20075;-73
2022/09/19 02:31:46;;;;;;;11.05;1.58;;;7.90;99.90;;;;;;5054719;28;20079;-73
2022/09/19 02:34:13;;;;;;;10.77;2.22;;;7.90;99.90;;;;;;5054840;28;20021;-73
2022/09/19 02:36:50;;;;;;;8.10;1.40;;;7.90;99.90;;;;;;5054472;28;20111;-73
2022/09/19 02:39:42;;;;;;;7.88;1.30;;;7.90;99.90;;;;;;5054955;28;20384;-74
2022/09/19 02:42:27;;;;;;;5.78;1.35;;;8.00;99.90;;;;;;5054090;28;20527;-73
2022/09/19 02:44:58;;;;;;;10.55;1.15;;;8.00;99.90;;;;;;5055229;28;20412;-74
2022/09/19 02:47:28;;;;;;;7.03;1.20;;;8.00;99.90;;;;;;5054650;28;20071;-73
2022/09/19 02:49:59;;;;;;;6.03;1.42;;;8.00;99.90;;;;;;5041107;28;20080;-73
2022/09/19 02:52:31;;;;;;;7.45;1.20;;;8.10;99.90;;;;;;5054700;28;20029;-74
2022/09/19 02:55:12;;;;;;;4.25;1.27;;;8.10;99.90;;;;;;5054813;28;20516;-73
2022/09/19 02:57:44;;;;;;;10.85;2.00;;;8.10;99.90;;;;;;5041283;28;20033;-73
2022/09/19 03:00:12;;;;;;;4.53;1.55;;;8.00;99.90;;;;;;5054640;28;20104;-73
2022/09/19 03:02:45;;;;;;;5.55;1.23;;;8.10;99.90;;;;;;5054503;28;20028;-73
2022/09/19 03:05:16;;;;;;;6.50;1.25;;;8.10;99.90;;;;;;5054711;28;20035;-74
2022/09/19 03:08:01;;;;;;;6.78;1.23;;;8.10;99.90;;;;;;5054915;28;20029;-73
2022/09/19 03:10:35;;;;;;;7.82;1.52;;;8.20;99.90;;;;;;5053653;28;20039;-73
2022/09/19 03:13:03;;;;;;;17.55;1.23;;;8.20;99.90;;;;;;5054973;28;20017;-73
2022/09/19 03:15:36;;;;;;;4.03;1.33;;;8.20;99.90;;;;;;5054428;28;20090;-73
2022/09/19 03:18:05;;;;;;;7.20;1.38;;;8.20;99.90;;;;;;5040853;28;20380;-73
2022/09/19 03:20:38;;;;;;;9.65;1.80;;;8.20;99.90;;;;;;5054668;28;20048;-74
2022/09/19 03:23:05;;;;;;;13.98;1.48;;;8.20;99.90;;;;;;5040760;28;20035;-74
2022/09/19 03:25:31;;;;;;;9.82;1.70;;;8.30;99.90;;;;;;5053778;28;20031;-74
2022/09/19 03:27:57;;;;;;;12.85;1.45;;;8.30;99.90;;;;;;5054182;28;20128;-74
2022/09/19 03:30:23;;;;;;;6.32;1.60;;;8.30;99.90;;;;;;5054353;28;20060;-74
2022/09/19 03:32:49;;;;;;;7.10;1.92;;;8.40;99.90;;;;;;5053759;28;20033;-74
2022/09/19 03:35:15;;;;;;;4.90;1.33;;;8.30;99.90;;;;;;5053608;28;20066;-74
2022/09/19 03:37:40;;;;;;;14.52;1.60;;;8.40;99.90;;;;;;5053413;28;20503;-73
2022/09/19 03:40:07;;;;;;;7.30;1.67;;;8.40;99.90;;;;;;5052998;28;20028;-74
2022/09/19 03:42:34;;;;;;;10.10;1.73;;;8.40;99.90;;;;;;5054290;28;20029;-73
2022/09/19 03:45:00;;;;;;;6.53;1.45;;;8.30;99.90;;;;;;5053041;28;20033;-73
2022/09/19 03:47:26;;;;;;;18.80;1.95;;;8.40;99.90;;;;;;5053630;28;20033;-74
2022/09/19 03:49:51;;;;;;;8.30;1.20;;;8.40;99.90;;;;;;5041089;28;20022;-73
2022/09/19 03:52:18;;;;;;;13.95;1.58;;;8.40;99.90;;;;;;5051550;28;20091;-74
2022/09/19 03:54:44;;;;;;;15.27;1.20;;;8.50;99.90;;;;;;5054534;28;20036;-74
2022/09/19 03:57:11;;;;;;;10.73;1.55;;;8.50;99.90;;;;;;5053271;28;20087;-74
2022/09/19 03:59:39;;;;;;;5.85;1.23;;;8.50;99.90;;;;;;5052939;28;20113;-74
2022/09/19 04:02:06;;;;;;;10.00;1.27;;;8.50;99.90;;;;;;5053213;28;20060;-74
2022/09/19 04:04:32;;;;;;;15.93;1.60;;;8.40;99.90;;;;;;5053699;28;20064;-74
2022/09/19 04:06:57;;;;;;;6.65;1.30;;;8.50;99.90;;;;;;5052960;28;20053;-73
2022/09/19 04:09:25;;;;;;;13.00;1.58;;;8.50;99.90;;;;;;5053092;28;20047;-74
2022/09/19 04:11:51;;;;;;;11.65;1.85;;;8.50;99.90;;;;;;5053742;28;20039;-74
2022/09/19 04:14:17;;;;;;;6.88;1.60;;;8.50;99.90;;;;;;5048813;28;20028;-74
2022/09/19 04:16:42;;;;;;;7.13;1.42;;;8.60;99.90;;;;;;5043283;28;20467;-73
2022/09/19 04:19:09;;;;;;;14.55;2.10;;;8.60;99.90;;;;;;5051182;28;20028;-74
2022/09/19 04:21:35;;;;;;;10.35;1.65;;;8.70;99.90;;;;;;5040860;28;20035;-74
2022/09/19 04:24:00;;;;;;;15.23;1.55;;;8.70;99.90;;;;;;5053118;28;20032;-74
2022/09/19 04:26:26;;;;;;;12.70;1.65;;;8.80;99.90;;;;;;5052732;28;20127;-74
2022/09/19 04:28:52;;;;;;;11.13;1.50;;;8.80;99.90;;;;;;5052513;28;20021;-74
2022/09/19 04:31:17;;;;;;;13.88;1.52;;;8.80;99.90;;;;;;5038857;28;20056;-74
2022/09/19 04:33:43;;;;;;;9.93;1.50;;;8.80;99.90;;;;;;5051759;28;20104;-74
2022/09/19 04:36:09;;;;;;;12.63;1.55;;;8.80;99.90;;;;;;5051809;28;20102;-74
2022/09/19 04:38:36;;;;;;;6.15;1.10;;;8.80;99.90;;;;;;5053015;28;20043;-74
2022/09/19 04:41:03;;;;;;;16.15;2.45;;;8.80;99.90;;;;;;5052723;28;20037;-74
2022/09/19 04:43:31;;;;;;;9.60;1.40;;;8.80;99.90;;;;;;5052135;28;20105;-74
2022/09/19 04:45:58;;;;;;;13.93;2.08;;;8.70;99.90;;;;;;5052960;28;20107;-74
2022/09/19 04:48:24;;;;;;;6.07;1.42;;;8.80;99.90;;;;;;5050679;28;20059;-74
2022/09/19 04:50:52;;;;;;;8.23;1.85;;;8.80;99.90;;;;;;5032949;28;20461;-74
2022/09/19 04:53:19;;;;;;;11.93;2.30;;;8.80;99.90;;;;;;5045947;28;20111;-75
2022/09/19 04:55:49;;;;;;;10.18;1.75;;;8.80;99.90;;;;;;5052448;28;20017;-73
2022/09/19 04:58:15;;;;;;;10.07;1.77;;;8.70;99.90;;;;;;5054219;28;20037;-73
2022/09/19 05:00:42;;;;;;;6.93;1.63;;;8.70;99.90;;;;;;5052731;28;20503;-74
2022/09/19 05:03:12;;;;;;;9.60;1.40;;;8.70;99.90;;;;;;5051832;28;20033;-72
2022/09/19 05:05:44;;;;;;;13.02;1.38;;;8.60;99.90;;;;;;5038619;28;20018;-73
2022/09/19 05:08:15;;;;;;;9.57;1.30;;;8.70;99.90;;;;;;5054322;28;20040;-74
2022/09/19 05:10:42;;;;;;;17.88;2.00;;;8.70;99.90;;;;;;5049790;28;20199;-74
2022/09/19 05:13:08;;;;;;;16.35;2.70;;;8.70;99.90;;;;;;5040741;28;20036;-74
2022/09/19 05:15:34;;;;;;;9.27;1.52;;;8.80;99.90;;;;;;5051076;28;20021;-74
2022/09/19 05:18:00;;;;;;;11.18;1.92;;;8.90;99.90;;;;;;5031471;28;20392;-75
2022/09/19 05:20:28;;;;;;;6.57;1.17;;;8.90;99.90;;;;;;5031752;28;20083;-74
2022/09/19 05:22:58;;;;;;;9.52;1.65;;;8.90;99.90;;;;;;5031921;28;20029;-74
2022/09/19 05:25:25;;;;;;;;;;;8.90;99.90;;;;;;5031564;28;20494;-74
2022/09/19 05:27:51;;;;;;;16.83;1.92;;;9.00;99.90;;;;;;5045049;28;20726;-75
2022/09/19 05:30:16;;;;;;;9.25;1.63;;;9.00;99.90;;;;;;5030294;28;20025;-74
2022/09/19 05:32:44;;;;;;;12.48;1.60;;;9.10;99.90;;;;;;5044147;28;20024;-75
2022/09/19 05:35:11;;;;;;;6.60;1.50;;;9.20;99.90;;;;;;5031614;28;20099;-74
2022/09/19 05:37:39;;;;;;;14.25;1.83;;;9.30;99.90;;;;;;5030581;28;20068;-74
2022/09/19 05:40:06;;;;;;;5.35;1.30;;;9.40;99.90;;;;;;5030623;28;20033;-75
2022/09/19 05:42:31;;;;;;;14.30;2.17;;;9.50;99.90;;;;;;5030716;28;20026;-74
2022/09/19 05:44:57;;;;;;;7.45;1.63;;;9.70;99.90;;;;;;5037207;28;20048;-74
2022/09/19 05:47:22;;;;;;;11.50;1.67;;;9.70;99.90;;;;;;5030581;28;20056;-74
2022/09/19 05:49:48;;;;;;;7.03;1.23;;;9.60;99.90;;;;;;5032873;28;20017;-74
2022/09/19 05:54:58;;;;;;;7.07;1.13;;;9.70;99.90;;;;;;5034068;28;20087;-75
2022/09/19 05:57:23;;;;;;;11.05;1.70;;;9.80;99.90;;;;;;5033469;28;20025;-74
2022/09/19 05:59:49;;;;;;;13.35;1.50;;;9.80;99.90;;;;;;5034100;28;20033;-74
2022/09/19 06:02:14;;;;;;;10.50;1.98;;;9.70;99.90;;;;;;5039340;28;20037;-74
2022/09/19 06:04:40;;;;;;;6.47;1.33;;;9.70;99.90;;;;;;5037073;28;20022;-74
2022/09/19 06:07:06;;;;;;;12.25;2.00;;;9.70;99.90;;;;;;5033526;28;20057;-74
2022/09/19 06:09:31;;;;;;;13.00;1.75;;;9.60;99.90;;;;;;5034751;28;20041;-74
2022/09/19 06:11:57;;;;;;;15.70;1.88;;;9.70;99.90;;;;;;5044568;28;20429;-73
2022/09/19 06:14:23;;;;;;;6.38;1.50;;;9.70;99.90;;;;;;5051798;28;20025;-73
2022/09/19 06:16:49;;;;;;;6.28;1.65;;;9.70;99.90;;;;;;5052709;28;20041;-74
2022/09/19 06:19:15;;;;;;;11.63;1.52;;;9.90;99.90;;;;;;5051002;28;20030;-75
2022/09/19 06:21:40;;;;;;;9.65;1.45;;;9.90;99.90;;;;;;5053220;28;20033;-74
2022/09/19 06:24:07;;;;;;;8.70;1.70;;;10.00;99.90;;;;;;5050207;28;20024;-73
2022/09/19 06:26:33;;;;;;;11.98;2.17;;;10.00;99.90;;;;;;5047375;28;20512;-80
2022/09/19 06:29:01;;;;;;;11.20;1.55;;;10.10;99.90;;;;;;5045720;28;20033;-80
2022/09/19 06:31:27;;;;;;;7.93;1.60;;;10.20;99.90;;;;;;5048924;28;20473;-77
2022/09/19 06:33:53;;;;;;;8.98;1.27;;;10.30;99.90;;;;;;5052130;28;20047;-76
2022/09/19 06:36:19;;;;;;;13.48;1.52;;;10.30;99.90;;;;;;5037938;28;20549;-79
2022/09/19 06:38:45;;;;;;;8.55;2.05;;;10.40;99.90;;;;;;5039406;28;20424;-77
2022/09/19 06:41:11;;;;;;;6.95;1.20;;;10.40;99.90;;;;;;5053198;28;20033;-75
2022/09/19 06:43:37;;;;;;;8.38;1.88;;;10.50;99.90;;;;;;5043933;28;20024;-79
2022/09/19 06:46:03;;;;;;;12.65;1.77;;;10.60;99.90;;;;;;5052632;28;20037;-77
2022/09/19 06:48:29;;;;;;;11.02;2.15;;;10.70;99.90;;;;;;5039665;28;20021;-77
2022/09/19 06:50:54;;;;;;;5.13;1.45;;;10.70;99.90;;;;;;5054760;28;20036;-80
2022/09/19 06:53:20;;;;;;;6.50;1.60;;;10.70;99.90;;;;;;5049116;28;20512;-76
2022/09/19 06:55:45;;;;;;;7.65;1.50;;;10.70;99.90;;;;;;5042738;28;20021;-79
2022/09/19 06:58:12;;;;;;;6.50;1.90;;;10.80;99.90;;;;;;5045350;28;20083;-78
2022/09/19 07:00:40;;;;;;;12.35;2.53;;;10.70;99.90;;;;;;5049055;28;20025;-79
2022/09/19 07:03:15;;;;;;;6.80;1.98;;;10.60;99.90;;;;;;5057326;28;20104;-78
2022/09/19 07:05:43;;;;;;;9.00;1.80;;;10.70;99.90;;;;;;5044555;28;20021;-80
2022/09/19 07:08:10;;;;;;;9.15;1.63;;;10.90;99.90;;;;;;5047742;28;20152;-79
2022/09/19 07:10:36;;;;;;;12.63;2.25;;;10.90;99.90;;;;;;5039857;28;20026;-80
2022/09/19 07:13:04;;;;;;;21.27;3.00;;;11.00;99.90;;;;;;5050526;28;20025;-77
2022/09/19 07:15:31;;;;;;;13.27;1.70;;;11.10;99.90;;;;;;5053314;28;20032;-77
2022/09/19 07:17:58;;;;;;;17.58;2.33;;;11.10;99.90;;;;;;5056368;28;20052;-77
2022/09/19 07:20:25;;;;;;;10.82;2.38;;;11.30;99.90;;;;;;5058258;28;20464;-78
2022/09/19 07:23:15;;;;;;;13.55;2.03;;;11.40;99.90;;;;;;5051120;28;20411;-76
2022/09/19 07:25:42;;;;;;;6.72;1.70;;;11.50;99.90;;;;;;5066630;28;20021;-80
2022/09/19 07:28:14;;;;;;;10.75;2.50;;;11.60;99.90;;;;;;5058977;28;20110;-80
2022/09/19 07:30:43;;;;;;;13.00;1.90;;;11.70;99.90;;;;;;5050665;28;20056;-80
2022/09/19 07:33:12;;;;;;;18.65;2.25;;;11.80;99.90;;;;;;5049320;28;20141;-80
2022/09/19 07:35:41;;;;;;;10.25;2.47;;;11.90;99.90;;;;;;5042296;28;20021;-80
2022/09/19 07:38:11;;;;;;;10.82;1.70;;;12.00;99.90;;;;;;5036016;28;20041;-80
2022/09/19 07:40:37;;;;;;;9.90;1.80;;;12.30;99.90;;;;;;5037758;28;20025;-79
2022/09/19 07:43:04;;;;;;;25.60;2.72;;;12.40;99.90;;;;;;5037152;28;21618;-80
2022/09/19 07:45:35;;;;;;;10.48;3.17;;;12.60;99.90;;;;;;5036452;28;20099;-79
2022/09/19 07:48:00;;;;;;;8.75;2.00;;;12.80;99.90;;;;;;5040945;28;20105;-80
2022/09/19 07:50:26;;;;;;;13.88;2.03;;;13.00;99.90;;;;;;5039081;28;20103;-79
2022/09/19 07:53:22;;;;;;;11.75;1.92;;;13.20;99.90;;;;;;5054244;28;20021;-79
2022/09/19 07:55:51;;;;;;;8.63;1.90;;;13.50;99.90;;;;;;5039887;28;20044;-79
2022/09/19 07:58:17;;;;;;;11.50;1.73;;;13.70;99.90;;;;;;5053701;28;20048;-81
2022/09/19 08:00:45;;;;;;;11.55;1.75;;;13.90;99.90;;;;;;5054529;28;20021;-79
2022/09/19 08:03:12;;;;;;;16.55;2.50;;;14.10;99.90;;;;;;5054126;28;20028;-79
2022/09/19 08:05:40;;;;;;;12.38;1.83;;;14.10;99.90;;;;;;5053788;28;20644;-79
2022/09/19 08:08:07;;;;;;;8.27;1.55;;;14.10;99.90;;;;;;5054024;28;20079;-79
2022/09/19 08:10:34;;;;;;;5.18;1.02;;;14.10;99.90;;;;;;5054307;28;20021;-79
2022/09/19 08:13:04;;;;;;;6.40;1.38;;;14.10;99.90;;;;;;5053897;28;20029;-79
2022/09/19 08:15:33;;;;;;;11.55;1.63;;;14.20;99.90;;;;;;5054164;28;20461;-79
2022/09/19 08:18:09;;;;;;;5.55;1.27;;;14.30;99.90;;;;;;5054104;28;20063;-79
2022/09/19 08:20:39;;;;;;;1.60;0.70;;;14.40;99.90;;;;;;5053307;28;20052;-79
2022/09/19 08:23:13;;;;;;;4.80;0.80;;;14.60;99.90;;;;;;5039742;28;20040;-79
2022/09/19 08:25:42;;;;;;;6.57;1.05;;;14.80;99.90;;;;;;5054267;28;20025;-78
2022/09/19 08:28:08;;;;;;;4.95;1.00;;;14.90;99.90;;;;;;5054024;28;20049;-78
2022/09/19 08:30:35;;;;;;;10.90;1.20;;;15.00;99.90;;;;;;5054402;28;20033;-79
2022/09/19 08:33:02;;;;;;;14.38;1.80;;;15.10;99.90;;;;;;5054713;28;20026;-80
2022/09/19 08:35:29;;;;;;;3.03;0.90;;;15.10;99.90;;;;;;5053417;28;20029;-80
2022/09/19 08:37:56;;;;;;;5.93;1.20;;;15.00;99.90;;;;;;5054143;28;20041;-80
2022/09/19 08:40:34;;;;;;;7.38;1.20;;;15.00;99.90;;;;;;5053610;28;20307;-80
2022/09/19 08:43:22;;;;;;;9.18;1.30;;;14.90;99.90;;;;;;5054103;28;20490;-80
2022/09/19 08:46:12;;;;;;;10.15;1.80;;;14.80;99.90;;;;;;5054543;28;20036;-79
2022/09/19 08:48:57;;;;;;;3.70;0.90;;;14.60;99.90;;;;;;5038160;28;20017;-79
2022/09/19 08:51:38;;;;;;;11.43;1.63;;;14.60;99.90;;;;;;5044963;28;20363;-80
2022/09/19 08:54:18;;;;;;;6.53;1.15;;;14.70;99.90;;;;;;5054281;28;20029;-80
2022/09/19 08:56:44;;;;;;;8.98;1.73;;;15.00;99.90;;;;;;5053383;28;20040;-80
2022/09/19 08:59:14;;;;;;;16.63;2.45;;;15.00;99.90;;;;;;5053590;28;20028;-80
2022/09/19 09:01:41;;;;;;;5.60;1.50;;;14.90;99.90;;;;;;5053123;28;20032;-80
2022/09/19 09:04:30;;;;;;;5.95;1.63;;;14.70;99.90;;;;;;5053194;28;20455;-79
2022/09/19 09:07:11;;;;;;;9.18;1.50;;;14.40;99.90;;;;;;5054242;28;20035;-81
2022/09/19 09:10:04;;;;;;;11.55;2.28;;;14.10;99.90;;;;;;5040410;28;20021;-79
2022/09/19 09:12:58;;;;;;;9.48;1.67;;;13.80;99.90;;;;;;5053143;28;20107;-79
2022/09/19 09:15:44;;;;;;;5.55;1.40;;;13.50;99.90;;;;;;5059020;28;20036;-78
2022/09/19 09:18:30;;;;;;;7.85;1.85;;;13.60;99.90;;;;;;5041410;28;20042;-79
2022/09/19 09:21:12;;;;;;;18.15;1.60;;;13.60;99.90;;;;;;5053446;28;20401;-79
2022/09/19 09:23:45;;;;;;;17.50;2.53;;;13.60;99.90;;;;;;5052796;28;20107;-79
2022/09/19 09:26:16;;;;;;;11.05;1.77;;;13.70;99.90;;;;;;5053060;28;20082;-78
2022/09/19 09:28:59;;;;;;;10.27;1.83;;;13.80;99.90;;;;;;5052900;28;20477;-79
2022/09/19 09:31:36;;;;;;;11.48;1.35;;;13.90;99.90;;;;;;5053063;28;20021;-79
2022/09/19 09:34:07;;;;;;;7.25;1.30;;;14.00;99.90;;;;;;5053666;28;20086;-79
2022/09/19 09:36:42;;;;;;;;;;;14.10;99.90;;;;;;5053474;28;20020;-79
2022/09/19 09:39:11;;;;;;;14.43;1.90;;;14.20;99.90;;;;;;5053098;28;20042;-78
2022/09/19 09:41:45;;;;;;;20.67;2.10;;;14.30;99.90;;;;;;5053082;28;20085;-80
2022/09/19 09:44:13;;;;;;;10.43;1.85;;;14.30;99.90;;;;;;5053625;28;20458;-79
2022/09/19 09:46:58;;;;;;;6.85;1.65;;;14.40;99.90;;;;;;5053709;28;20021;-79
2022/09/19 09:49:29;;;;;;;9.48;2.08;;;14.60;99.90;;;;;;5043870;28;20037;-80
2022/09/19 09:52:50;;;;;;;7.68;1.35;;;14.70;99.90;;;;;;5048177;28;20028;-80
2022/09/19 09:58:54;;;;;;;5.88;1.48;;;15.00;99.90;;;;;;5052205;28;20067;-80
2022/09/19 10:04:26;;;;;;;9.68;1.42;;;15.30;99.90;;;;;;5038549;28;20028;-80
2022/09/19 10:07:12;;;;;;;15.90;2.17;;;15.30;99.90;;;;;;5052742;28;20056;-81
2022/09/19 10:09:48;;;;;;;7.60;1.27;;;15.30;99.90;;;;;;5044967;28;20026;-80
2022/09/19 10:12:25;;;;;;;11.38;1.25;;;15.30;99.90;;;;;;5045863;28;20020;-80
2022/09/19 10:14:58;;;;;;;11.70;1.70;;;15.30;99.90;;;;;;5041841;28;20024;-81
2022/09/19 10:17:26;;;;;;;9.48;1.27;;;15.50;99.90;;;;;;5052883;28;20048;-81
2022/09/19 10:20:00;;;;;;;7.68;1.63;;;15.80;99.90;;;;;;5051986;28;20120;-81
2022/09/19 10:22:26;;;;;;;4.35;1.10;;;16.10;99.90;;;;;;5051832;28;20374;-81
2022/09/19 10:24:58;;;;;;;10.25;1.40;;;16.20;99.90;;;;;;5052107;28;20046;-81
2022/09/19 10:27:33;;;;;;;7.88;1.85;;;16.40;99.90;;;;;;5051249;28;20079;-81
2022/09/19 10:30:19;;;;;;;7.57;1.65;;;16.50;99.90;;;;;;5040054;28;20071;-81
2022/09/19 10:32:46;;;;;;;5.05;1.60;;;16.60;99.90;;;;;;5052585;28;20086;-81
2022/09/19 10:35:27;;;;;;;4.50;1.10;;;16.60;99.90;;;;;;5043289;28;20032;-81
2022/09/19 10:38:17;;;;;;;7.53;1.00;;;16.60;99.90;;;;;;5049025;28;20045;-83
2022/09/19 10:41:00;;;;;;;5.65;1.38;;;16.40;99.90;;;;;;5052605;28;20036;-82
2022/09/19 10:43:33;;;;;;;5.93;0.80;;;16.20;99.90;;;;;;5053385;28;20025;-82
2022/09/19 10:46:09;;;;;;;5.63;1.65;;;16.00;99.90;;;;;;5056737;28;20047;-81
2022/09/19 10:48:38;;;;;;;9.20;1.20;;;15.90;99.90;;;;;;5055129;28;20025;-80
2022/09/19 10:51:12;;;;;;;2.67;0.73;;;15.80;99.90;;;;;;5045185;28;20020;-81
2022/09/19 10:53:42;;;;;;;4.60;0.80;;;15.80;99.90;;;;;;5055989;28;20445;-81
2022/09/19 10:56:22;;;;;;;5.93;1.63;;;15.90;99.90;;;;;;5055611;28;20024;-81
2022/09/19 10:58:49;;;;;;;3.97;0.80;;;16.00;99.90;;;;;;5056655;28;20559;-81
2022/09/19 11:01:24;;;;;;;11.48;0.95;;;16.30;99.90;;;;;;5056531;28;20481;-81
2022/09/19 11:04:02;;;;;;;3.08;0.90;;;16.40;99.90;;;;;;5063120;28;20017;-82
2022/09/19 11:06:29;;;;;;;3.72;1.48;;;16.60;99.90;;;;;;5062686;28;20461;-82
2022/09/19 11:08:55;;;;;;;2.60;0.65;;;16.70;99.90;;;;;;5058099;28;20021;-82
2022/09/19 11:11:37;;;;;;;4.32;0.85;;;16.70;99.90;;;;;;5057378;28;20032;-83
2022/09/19 11:14:26;;;;;;;4.72;0.98;;;16.80;99.90;;;;;;5055781;28;20106;-82
2022/09/19 11:17:30;;;;;;;4.85;1.10;;;16.90;99.90;;;;;;5066263;28;20057;-82
2022/09/19 11:20:30;;;;;;;9.48;1.30;;;17.10;99.90;;;;;;5058154;28;20057;-83
2022/09/19 11:23:14;;;;;;;5.35;1.15;;;17.10;99.90;;;;;;5077048;28;20049;-82
2022/09/19 11:25:48;;;;;;;8.45;0.98;;;17.20;99.90;;;;;;5065418;28;20457;-83
2022/09/19 11:28:34;;;;;;;3.78;0.93;;;17.30;99.90;;;;;;5064516;28;20052;-83
2022/09/19 11:31:31;;;;;;;3.38;0.90;;;17.30;99.90;;;;;;5066101;28;20032;-83
2022/09/19 11:34:04;;;;;;;6.88;1.35;;;17.30;99.90;;;;;;5056016;28;20029;-83
2022/09/19 11:36:48;;;;;;;6.32;1.13;;;17.30;99.90;;;;;;5057063;28;20036;-81
2022/09/19 11:39:20;;;;;;;4.63;1.02;;;17.40;99.90;;;;;;5038663;28;20119;-81
2022/09/19 11:41:55;;;;;;;6.50;1.23;;;17.40;99.90;;;;;;5045278;28;20021;-84
2022/09/19 11:44:30;;;;;;;7.85;2.10;;;17.30;99.90;;;;;;5048254;28;20025;-82
2022/09/19 11:47:06;;;;;;;7.53;1.30;;;17.20;99.90;;;;;;5044298;28;20025;-82
2022/09/19 11:50:10;;;;;;;7.88;1.42;;;17.20;99.90;;;;;;5042747;28;20056;-82
2022/09/19 11:53:04;;;;;;;9.20;1.70;;;17.20;99.90;;;;;;5048191;28;20111;-83
2022/09/19 11:55:46;;;;;;;15.95;1.65;;;17.20;99.90;;;;;;5056265;28;20092;-84
2022/09/19 11:58:24;;;;;;;7.60;1.02;;;17.40;99.90;;;;;;5054297;28;20047;-82
2022/09/19 12:01:11;;;;;;;10.00;2.00;;;17.40;99.90;;;;;;5050205;28;20025;-82
2022/09/19 12:03:50;;;;;;;3.60;1.05;;;17.50;99.90;;;;;;5050911;28;20033;-83
2022/09/19 12:06:34;;;;;;;7.65;1.45;;;17.60;99.90;;;;;;5043381;28;20020;-83
2022/09/19 12:09:27;;;;;;;8.25;1.10;;;17.70;99.90;;;;;;5055987;28;20025;-83
2022/09/19 12:12:07;;;;;;;8.98;1.30;;;17.70;99.90;;;;;;5045766;28;20017;-83
2022/09/19 12:14:39;;;;;;;5.20;1.02;;;17.60;99.90;;;;;;5051232;28;20032;-84
2022/09/19 12:17:17;;;;;;;5.38;1.30;;;17.50;99.90;;;;;;5050195;28;20507;-86
2022/09/19 12:19:49;;;;;;;6.93;1.30;;;17.40;99.90;;;;;;5048844;28;20025;-84
2022/09/19 12:22:23;;;;;;;11.10;1.38;;;17.50;99.90;;;;;;5050499;28;20060;-84
2022/09/19 12:25:08;;;;;;;5.53;1.63;;;17.70;99.90;;;;;;5043878;28;20043;-84
2022/09/19 12:27:54;;;;;;;5.88;1.13;;;17.90;99.80;;;;;;5043533;28;20172;-81
2022/09/19 12:30:23;;;;;;;4.18;1.00;;;18.00;99.90;;;;;;5042807;28;20045;-83
2022/09/19 12:33:10;;;;;;;16.00;1.58;;;17.90;99.90;;;;;;5045229;28;20028;-81
2022/09/19 12:35:50;;;;;;;6.00;1.17;;;17.90;99.90;;;;;;5049602;28;20043;-81
2022/09/19 12:38:39;;;;;;;8.23;1.33;;;17.80;99.90;;;;;;5051637;28;20029;-81
2022/09/19 12:41:32;;;;;;;4.65;1.23;;;17.50;99.90;;;;;;5052128;28;20029;-80
2022/09/19 12:44:20;;;;;;;6.55;1.17;;;17.10;99.90;;;;;;5048777;28;20089;-81
2022/09/19 12:47:15;;;;;;;4.60;0.90;;;16.90;99.90;;;;;;5046149;28;20029;-78
2022/09/19 12:49:56;;;;;;;5.80;1.23;;;16.60;99.90;;;;;;5042797;28;20092;-77
2022/09/19 12:52:34;;;;;;;5.03;0.90;;;16.40;99.90;;;;;;5052477;28;20009;-77
2022/09/19 12:55:15;;;;;;;8.13;1.27;;;16.40;99.90;;;;;;5052178;28;20040;-76
2022/09/19 12:57:57;;;;;;;4.03;1.10;;;16.30;99.90;;;;;;5049151;28;20685;-78
2022/09/19 13:00:24;;;;;;;3.25;1.33;;;16.30;99.90;;;;;;5045333;28;20044;-78
2022/09/19 13:03:13;;;;;;;4.22;1.10;;;16.30;99.90;;;;;;5050224;28;20021;-76
2022/09/19 13:05:52;;;;;;;2.47;0.90;;;16.30;99.90;;;;;;5042341;28;20048;-77
2022/09/19 13:08:27;;;;;;;4.35;0.95;;;16.30;99.90;;;;;;5044204;28;20033;-76
2022/09/19 13:11:08;;;;;;;2.63;0.60;;;16.40;99.90;;;;;;5046083;28;20025;-76
2022/09/19 13:13:37;;;;;;;;;;;16.40;99.90;;;;;;5045153;28;20033;-77
2022/09/19 13:16:08;;;;;;;2.13;0.80;;;16.60;99.90;;;;;;5041849;28;19917;-77
2022/09/19 13:24:12;;;;;;;2.92;1.17;;;16.80;99.90;;;;;;5047518;28;20083;-76
2022/09/19 13:26:39;;;;;;;3.35;0.70;;;16.80;99.90;;;;;;5049330;28;20041;-78
2022/09/19 13:29:26;;;;;;;4.25;0.85;;;16.90;99.90;;;;;;5045570;28;20082;-77
2022/09/19 13:31:55;;;;;;;5.20;0.88;;;16.90;99.90;;;;;;5047953;28;20040;-78
2022/09/19 13:34:33;;;;;;;6.97;1.70;;;16.90;99.90;;;;;;5045474;28;20064;-78
2022/09/19 13:37:04;;;;;;;4.70;1.00;;;17.00;99.90;;;;;;5050281;28;20021;-78